Startpagina
METAR-TAF:

METAR-TAF

Vliegvelden :

Accra, Ghana

Luchthaven Kotoka Internationaal

breedte: 05-36N, lengte: 000-10W, hoogte: 68 m

Actueel weer

Dit bericht is 26 minuten geleden gemaakt, om 18:00 UTC
Wind 16 kt uit het zuidzuidwesten
Temperatuur 29°C
Vochtigheid 79%
Druk 1007 hPa
Zicht 10 km of meer
Verspreide wolken op 1700 ft

METAR: DGAA 231800Z 21016KT 9999 SCT017 29/25 Q1007 NOSIG

Tijdstip: 18:26 (18:26 UTC)

Verwachting

Dit bericht is 1 uur en het 26 minuten geleden gemaakt, om 17:00 UTC
Verwachting geldig van 23 om 18 UTC tot 24 om 24 UTC
Wind 15 kt uit het zuidwesten
Zicht 10 km of meer
Weinig wolken op 1200 ft
Wijzigt naar
van 24 om 02 UTC tot 24 om 04 UTC
Wind 10 kt uit het westen
Gebroken wolken op 1000 ft
Tijdelijke
van 24 om 06 UTC tot 24 om 10 UTC
Zicht: 7000 m
Wijzigt naar
van 24 om 12 UTC tot 24 om 14 UTC
Wind 10 kt uit het zuiden
Verspreide wolken op 1800 ft

TAF: DGAA 231700Z 2318/2424 22015KT 9999 FEW012 BECMG 2402/2404 27010KT BKN010 TEMPO 2406/2410 7000 BECMG 2412/2414 18010KT SCT018

Waarnemingen en weersverwachtingen van meer dan 4000 vliegvelden (METAR en TAF).

De beschikbare stations zijn de gele en rode punten op de kaart.

Ga met uw muis naar het station om de naam te zien.

Klik dan om waarnemingen en weersverwachtingen te zien.

kaart wijzigen: klik op de groene knoppen met een zwart kruis om in te zoomen, op de groene knop met een streepje om uit te zoomen of op de groene pijlen voor aangrenzende kaarten.


METAR-TAF: